Time;durP1;ratioP1;P1;durP2;ratioP2;P2;SDS_P1;SDS_P2;PMS_P1;PMS_P2;Temp;Humidity;BMP_temperature;BMP_pressure;BME280_temperature;BME280_humidity;BME280_pressure;Samples;Min_cycle;Max_cycle;Signal;HPM_P1;HPM_P2
2023/05/09 00:00:53;;;;;;;1.70;1.60;;;15.50;99.90;;;;;;4994958;28;20047;-64
2023/05/09 00:03:19;;;;;;;1.80;1.65;;;15.50;99.90;;;;;;4999476;28;20117;-64
2023/05/09 00:05:45;;;;;;;0.17;0.17;;;15.40;99.90;;;;;;5012339;28;20097;-64
2023/05/09 00:08:11;;;;;;;0.40;0.40;;;15.40;99.90;;;;;;4980287;28;20034;-64
2023/05/09 00:10:36;;;;;;;0.90;0.75;;;15.40;99.90;;;;;;5007050;28;20045;-64
2023/05/09 00:13:02;;;;;;;1.42;1.33;;;15.40;99.90;;;;;;5007287;28;20401;-64
2023/05/09 00:15:28;;;;;;;0.28;0.28;;;15.40;99.90;;;;;;5013668;28;20042;-64
2023/05/09 00:17:53;;;;;;;1.95;1.38;;;15.40;99.90;;;;;;5003464;28;20069;-64
2023/05/09 00:20:19;;;;;;;0.40;0.40;;;15.40;99.90;;;;;;5002509;28;20133;-64
2023/05/09 00:22:45;;;;;;;2.53;0.85;;;15.40;99.90;;;;;;5017564;28;20037;-66
2023/05/09 00:25:11;;;;;;;0.22;0.22;;;15.40;99.90;;;;;;5008680;28;20081;-62
2023/05/09 00:27:37;;;;;;;0.30;0.30;;;15.40;99.90;;;;;;5001879;28;20057;-64
2023/05/09 00:30:03;;;;;;;0.40;0.40;;;15.30;99.90;;;;;;5010252;28;20044;-64
2023/05/09 00:32:29;;;;;;;4.10;2.28;;;15.30;99.90;;;;;;5013967;28;20061;-64
2023/05/09 00:34:55;;;;;;;12.50;1.30;;;15.30;99.90;;;;;;5002694;28;20109;-63
2023/05/09 00:37:21;;;;;;;0.75;0.75;;;15.40;99.90;;;;;;5001046;28;20088;-64
2023/05/09 00:39:47;;;;;;;0.70;0.70;;;15.40;99.90;;;;;;5007943;28;20041;-64
2023/05/09 00:42:13;;;;;;;0.95;0.95;;;15.40;99.90;;;;;;4986421;28;20057;-64
2023/05/09 00:44:39;;;;;;;0.68;0.68;;;15.30;99.90;;;;;;5009484;28;20061;-64
2023/05/09 00:47:06;;;;;;;1.92;1.83;;;15.30;99.90;;;;;;5009115;28;20045;-63
2023/05/09 00:49:31;;;;;;;1.20;1.05;;;15.30;99.90;;;;;;5006120;28;20033;-63
2023/05/09 00:51:57;;;;;;;0.88;0.82;;;15.30;99.90;;;;;;5005676;28;20041;-64
2023/05/09 00:54:23;;;;;;;1.45;1.38;;;15.40;99.90;;;;;;5003914;28;20051;-63
2023/05/09 00:56:50;;;;;;;0.55;0.55;;;15.30;99.90;;;;;;5001936;28;20484;-63
2023/05/09 00:59:17;;;;;;;0.57;0.52;;;15.20;99.90;;;;;;5004879;28;20056;-63
2023/05/09 01:01:42;;;;;;;0.73;0.73;;;15.30;99.90;;;;;;5004496;28;20049;-63
2023/05/09 01:04:09;;;;;;;1.27;0.73;;;15.30;99.90;;;;;;5007773;28;20042;-64
2023/05/09 01:06:44;;;;;;;2.85;1.25;;;15.20;99.90;;;;;;5009079;28;20034;-64
2023/05/09 01:09:13;;;;;;;0.40;0.32;;;15.10;99.90;;;;;;5007351;28;20041;-64
2023/05/09 01:11:55;;;;;;;1.65;1.33;;;15.20;99.90;;;;;;5005480;28;20572;-64
2023/05/09 01:15:03;;;;;;;1.52;1.42;;;15.20;99.90;;;;;;4997694;28;20394;-64
2023/05/09 01:17:57;;;;;;;0.40;0.40;;;15.20;99.90;;;;;;5014946;28;20057;-63
2023/05/09 01:20:45;;;;;;;0.60;0.60;;;15.20;99.90;;;;;;4999677;28;20058;-63
2023/05/09 01:23:31;;;;;;;1.02;1.02;;;15.20;99.90;;;;;;4984103;28;20046;-63
2023/05/09 01:26:03;;;;;;;1.33;0.88;;;15.10;99.90;;;;;;5012886;28;20116;-64
2023/05/09 01:28:56;;;;;;;1.03;1.03;;;15.10;99.90;;;;;;4999383;28;20137;-63
2023/05/09 01:31:23;;;;;;;3.92;1.55;;;15.20;99.90;;;;;;4999844;28;20041;-63
2023/05/09 01:33:55;;;;;;;8.25;0.88;;;15.10;99.90;;;;;;5011846;28;20220;-63
2023/05/09 01:36:22;;;;;;;0.88;0.88;;;15.10;99.90;;;;;;5008940;28;20041;-63
2023/05/09 01:38:52;;;;;;;0.75;0.70;;;15.00;99.90;;;;;;5001545;28;20124;-63
2023/05/09 01:41:21;;;;;;;0.28;0.28;;;15.00;99.90;;;;;;5002306;28;20053;-63
2023/05/09 01:43:48;;;;;;;1.67;1.38;;;15.00;99.90;;;;;;5007691;28;20133;-63
2023/05/09 01:46:16;;;;;;;2.53;2.33;;;15.00;99.90;;;;;;5009670;28;20084;-63
2023/05/09 01:48:43;;;;;;;1.08;1.08;;;15.10;99.90;;;;;;4997510;28;20053;-63
2023/05/09 01:51:12;;;;;;;0.30;0.30;;;15.10;99.90;;;;;;5010281;28;20046;-63
2023/05/09 01:53:39;;;;;;;3.15;2.10;;;15.10;99.90;;;;;;4998885;28;20043;-63
2023/05/09 01:56:06;;;;;;;2.08;0.85;;;15.10;99.90;;;;;;4986461;28;20050;-63
2023/05/09 01:58:33;;;;;;;0.35;0.35;;;15.20;99.90;;;;;;4976731;28;20055;-63
2023/05/09 02:00:59;;;;;;;0.50;0.50;;;15.20;99.90;;;;;;5002931;28;20143;-63
2023/05/09 02:03:26;;;;;;;0.85;0.73;;;15.20;99.90;;;;;;5002715;28;21594;-63
2023/05/09 02:05:54;;;;;;;0.85;0.75;;;15.20;99.90;;;;;;4985820;28;20054;-63
2023/05/09 02:08:20;;;;;;;2.13;0.85;;;15.20;99.90;;;;;;5008818;28;20053;-63
2023/05/09 02:10:50;;;;;;;0.98;0.77;;;15.20;99.90;;;;;;5012335;28;20038;-63
2023/05/09 02:13:16;;;;;;;2.55;1.65;;;15.30;99.90;;;;;;5000593;28;20481;-63
2023/05/09 02:15:42;;;;;;;0.43;0.43;;;15.20;99.90;;;;;;5002213;28;20052;-63
2023/05/09 02:18:08;;;;;;;1.75;1.27;;;15.30;99.90;;;;;;5009853;28;20045;-63
2023/05/09 02:20:34;;;;;;;1.15;1.05;;;15.30;99.90;;;;;;5001351;28;20049;-63
2023/05/09 02:23:01;;;;;;;0.50;0.50;;;15.30;99.90;;;;;;5010382;28;20061;-63
2023/05/09 02:25:27;;;;;;;0.55;0.55;;;15.30;99.90;;;;;;5008580;28;20121;-63
2023/05/09 02:27:55;;;;;;;1.02;0.93;;;15.30;99.90;;;;;;5009717;28;20043;-63
2023/05/09 02:30:24;;;;;;;3.90;0.93;;;15.30;99.90;;;;;;5013948;28;20038;-63
2023/05/09 02:32:53;;;;;;;1.00;1.00;;;15.20;99.90;;;;;;5008667;28;20505;-63
2023/05/09 02:35:21;;;;;;;2.85;2.17;;;15.20;99.90;;;;;;5013710;28;20048;-63
2023/05/09 02:37:48;;;;;;;0.40;0.40;;;15.20;99.90;;;;;;5006058;28;20478;-63
2023/05/09 02:40:14;;;;;;;1.27;1.17;;;15.20;99.90;;;;;;5008521;28;20046;-64
2023/05/09 02:42:39;;;;;;;2.17;1.30;;;15.10;99.90;;;;;;5006818;28;20053;-63
2023/05/09 02:45:06;;;;;;;0.45;0.45;;;15.10;99.90;;;;;;5009882;28;20034;-63
2023/05/09 02:47:32;;;;;;;0.28;0.28;;;15.10;99.90;;;;;;5006848;28;20121;-64
2023/05/09 02:49:57;;;;;;;0.88;0.88;;;15.10;99.90;;;;;;4995092;28;20886;-63
2023/05/09 02:52:23;;;;;;;0.43;0.43;;;15.10;99.90;;;;;;4998871;28;20039;-63
2023/05/09 02:54:49;;;;;;;2.15;2.05;;;15.10;99.90;;;;;;5012204;28;20374;-63
2023/05/09 02:57:14;;;;;;;3.10;2.38;;;15.10;99.90;;;;;;5002258;28;20041;-63
2023/05/09 02:59:40;;;;;;;1.02;0.90;;;15.10;99.90;;;;;;5006850;28;20065;-63
2023/05/09 03:02:05;;;;;;;3.35;1.83;;;15.10;99.90;;;;;;5004585;28;20046;-63
2023/05/09 03:04:31;;;;;;;1.70;1.60;;;15.10;99.90;;;;;;5008181;28;20140;-63
2023/05/09 03:06:57;;;;;;;0.95;0.95;;;15.10;99.90;;;;;;5012299;28;20042;-63
2023/05/09 03:09:22;;;;;;;0.68;0.68;;;15.10;99.90;;;;;;5007837;28;20038;-63
2023/05/09 03:11:49;;;;;;;2.13;1.92;;;15.00;99.90;;;;;;5000330;28;20037;-63
2023/05/09 03:14:14;;;;;;;1.40;1.33;;;15.00;99.90;;;;;;5011642;28;20481;-63
2023/05/09 03:16:40;;;;;;;0.30;0.30;;;15.00;99.90;;;;;;5014006;28;20049;-63
2023/05/09 03:19:06;;;;;;;0.45;0.45;;;15.00;99.90;;;;;;5005595;28;20038;-63
2023/05/09 03:21:31;;;;;;;3.38;2.13;;;15.10;99.90;;;;;;4998536;28;20453;-63
2023/05/09 03:23:57;;;;;;;1.20;1.10;;;15.10;99.90;;;;;;5003627;28;20129;-63
2023/05/09 03:26:23;;;;;;;0.35;0.35;;;15.00;99.90;;;;;;4988364;28;20058;-63
2023/05/09 03:28:48;;;;;;;1.73;1.63;;;15.00;99.90;;;;;;5006308;28;20077;-63
2023/05/09 03:31:14;;;;;;;1.83;1.45;;;15.10;99.90;;;;;;5013352;28;20038;-63
2023/05/09 03:33:40;;;;;;;1.02;0.90;;;15.00;99.90;;;;;;5007533;28;20026;-63
2023/05/09 03:36:06;;;;;;;0.20;0.20;;;14.90;99.90;;;;;;5009107;28;20132;-63
2023/05/09 03:38:32;;;;;;;0.80;0.80;;;14.90;99.90;;;;;;5002315;28;20050;-63
2023/05/09 03:40:57;;;;;;;3.35;1.20;;;15.00;99.90;;;;;;5003225;28;20042;-63
2023/05/09 03:43:23;;;;;;;5.93;2.40;;;15.00;99.90;;;;;;5011063;28;20585;-63
2023/05/09 03:45:48;;;;;;;7.47;1.63;;;15.00;99.90;;;;;;5007630;28;20481;-63
2023/05/09 03:48:15;;;;;;;1.08;0.95;;;15.00;99.90;;;;;;5004127;28;20042;-63
2023/05/09 03:50:40;;;;;;;2.42;2.22;;;15.00;99.90;;;;;;5008469;28;20121;-63
2023/05/09 03:53:06;;;;;;;6.82;1.40;;;15.10;99.90;;;;;;5001220;28;20121;-63
2023/05/09 03:55:32;;;;;;;0.77;0.73;;;15.10;99.90;;;;;;5013356;28;20049;-63
2023/05/09 03:57:57;;;;;;;1.17;1.17;;;15.10;99.90;;;;;;5001199;28;20041;-63
2023/05/09 04:00:25;;;;;;;1.30;1.10;;;15.10;99.90;;;;;;5015163;28;20450;-63
2023/05/09 04:02:51;;;;;;;0.75;0.75;;;15.10;99.90;;;;;;5005610;28;20038;-63
2023/05/09 04:05:17;;;;;;;3.67;0.85;;;15.10;99.90;;;;;;5009105;28;20033;-63
2023/05/09 04:07:42;;;;;;;4.65;2.00;;;15.10;99.90;;;;;;5014495;28;20484;-63
2023/05/09 04:10:08;;;;;;;4.45;2.17;;;15.10;99.90;;;;;;5009338;28;20039;-63
2023/05/09 04:12:34;;;;;;;0.52;0.52;;;15.10;99.90;;;;;;5005693;28;20263;-64
2023/05/09 04:15:00;;;;;;;5.85;0.77;;;15.10;99.90;;;;;;5007373;28;20491;-63
2023/05/09 04:17:25;;;;;;;1.38;1.27;;;15.10;99.90;;;;;;5003235;28;20053;-63
2023/05/09 04:19:51;;;;;;;4.57;2.83;;;15.00;99.90;;;;;;5008951;28;20038;-63
2023/05/09 04:22:17;;;;;;;5.95;2.05;;;15.10;99.90;;;;;;4999419;28;20294;-63
2023/05/09 04:24:42;;;;;;;0.45;0.45;;;15.00;99.90;;;;;;5000411;28;20042;-63
2023/05/09 04:27:08;;;;;;;2.60;0.75;;;15.00;99.90;;;;;;4992674;28;20171;-63
2023/05/09 04:29:34;;;;;;;2.55;0.68;;;15.00;99.90;;;;;;5001117;28;20054;-63
2023/05/09 04:32:00;;;;;;;0.45;0.45;;;15.00;99.90;;;;;;5005159;28;20042;-63
2023/05/09 04:34:26;;;;;;;2.00;1.88;;;15.00;99.90;;;;;;5004418;28;20050;-63
2023/05/09 04:36:52;;;;;;;3.05;0.43;;;15.00;99.90;;;;;;5002465;28;20516;-63
2023/05/09 04:39:18;;;;;;;1.20;1.20;;;15.00;99.90;;;;;;5009780;28;20046;-63
2023/05/09 04:41:46;;;;;;;0.85;0.85;;;15.00;99.90;;;;;;5001535;28;20034;-63
2023/05/09 04:44:16;;;;;;;0.63;0.63;;;15.00;99.90;;;;;;5004308;28;20038;-63
2023/05/09 04:46:41;;;;;;;6.13;1.90;;;15.00;99.90;;;;;;5002957;28;20503;-63
2023/05/09 04:49:07;;;;;;;2.78;2.10;;;15.00;99.90;;;;;;5004556;28;20030;-63
2023/05/09 04:51:33;;;;;;;3.13;1.52;;;15.00;99.90;;;;;;4984491;28;20053;-63
2023/05/09 04:53:59;;;;;;;1.65;1.55;;;15.00;99.90;;;;;;5004486;28;20409;-63
2023/05/09 04:56:25;;;;;;;2.30;2.10;;;15.00;99.90;;;;;;4988797;28;20092;-63
2023/05/09 04:58:51;;;;;;;1.05;0.75;;;15.00;99.90;;;;;;4984738;28;20046;-63
2023/05/09 05:01:17;;;;;;;1.92;1.52;;;15.10;99.90;;;;;;4997870;28;20493;-63
2023/05/09 05:03:43;;;;;;;0.90;0.90;;;15.00;99.90;;;;;;5003734;28;20041;-63
2023/05/09 05:06:08;;;;;;;4.55;1.83;;;15.00;99.90;;;;;;5010318;28;20045;-63
2023/05/09 05:08:34;;;;;;;0.30;0.30;;;15.10;99.90;;;;;;4987821;28;20096;-63
2023/05/09 05:11:00;;;;;;;0.80;0.80;;;15.20;99.90;;;;;;5005514;28;20041;-63
2023/05/09 05:13:25;;;;;;;11.43;2.80;;;15.20;99.90;;;;;;5005454;28;20113;-63
2023/05/09 05:15:51;;;;;;;1.85;1.17;;;15.10;99.90;;;;;;5000306;28;20478;-63
2023/05/09 05:18:17;;;;;;;4.40;2.70;;;15.20;99.90;;;;;;4997996;28;20038;-63
2023/05/09 05:20:42;;;;;;;20.63;1.67;;;15.20;99.90;;;;;;5006852;28;20405;-63
2023/05/09 05:23:09;;;;;;;6.70;2.58;;;15.30;99.90;;;;;;5003703;28;20442;-63
2023/05/09 05:25:34;;;;;;;2.47;2.28;;;15.40;99.90;;;;;;5002919;28;20141;-63
2023/05/09 05:28:00;;;;;;;1.15;1.08;;;15.30;99.90;;;;;;5004917;28;20137;-63
2023/05/09 05:30:26;;;;;;;2.08;1.10;;;15.40;99.90;;;;;;4996939;28;20050;-63
2023/05/09 05:32:51;;;;;;;3.17;1.35;;;15.40;99.90;;;;;;4998757;28;20039;-62
2023/05/09 05:35:18;;;;;;;4.65;2.00;;;15.50;99.90;;;;;;5009324;28;20496;-63
2023/05/09 05:37:44;;;;;;;1.70;1.55;;;15.50;99.90;;;;;;5004648;28;20055;-63
2023/05/09 05:40:10;;;;;;;1.27;1.17;;;15.50;99.90;;;;;;5016392;28;20493;-63
2023/05/09 05:42:35;;;;;;;1.67;1.58;;;15.50;99.90;;;;;;5004841;28;20129;-63
2023/05/09 05:45:03;;;;;;;0.80;0.73;;;15.50;99.90;;;;;;5006940;28;20038;-63
2023/05/09 05:47:36;;;;;;;1.48;1.35;;;15.50;99.90;;;;;;5014689;28;20045;-63
2023/05/09 05:50:03;;;;;;;4.88;3.22;;;15.50;99.90;;;;;;5004226;28;20035;-63
2023/05/09 05:52:29;;;;;;;1.52;1.42;;;15.60;99.90;;;;;;4999752;28;20547;-63
2023/05/09 05:54:54;;;;;;;4.00;1.70;;;15.60;99.90;;;;;;5013476;28;20049;-63
2023/05/09 05:57:20;;;;;;;1.77;1.25;;;15.60;99.90;;;;;;5005926;28;20038;-63
2023/05/09 05:59:47;;;;;;;1.88;1.77;;;15.60;99.90;;;;;;5003864;28;20042;-62
2023/05/09 06:02:12;;;;;;;4.00;2.70;;;15.60;99.90;;;;;;5001600;28;20073;-63
2023/05/09 06:04:38;;;;;;;3.40;2.72;;;15.60;99.90;;;;;;5015588;28;20107;-63
2023/05/09 06:07:04;;;;;;;0.43;0.43;;;15.60;99.90;;;;;;5009328;28;20050;-64
2023/05/09 06:09:30;;;;;;;0.70;0.70;;;15.70;99.90;;;;;;5007934;28;20389;-63
2023/05/09 06:11:55;;;;;;;8.88;2.38;;;15.70;99.90;;;;;;5011499;28;20049;-63
2023/05/09 06:14:21;;;;;;;2.53;2.35;;;15.70;99.90;;;;;;5013693;28;20539;-63
2023/05/09 06:16:47;;;;;;;12.35;1.88;;;15.70;99.90;;;;;;4986396;28;20448;-63
2023/05/09 06:19:12;;;;;;;3.17;1.05;;;15.80;99.90;;;;;;5011547;28;20042;-63
2023/05/09 06:21:38;;;;;;;14.38;1.77;;;15.80;99.90;;;;;;5009366;28;20072;-63
2023/05/09 06:24:04;;;;;;;3.38;2.65;;;15.80;99.90;;;;;;5018107;28;20381;-63
2023/05/09 06:26:29;;;;;;;5.82;2.20;;;15.80;99.90;;;;;;5010924;28;20061;-63
2023/05/09 06:28:55;;;;;;;1.02;1.02;;;15.80;99.90;;;;;;5013609;28;20046;-63
2023/05/09 06:31:21;;;;;;;16.38;3.17;;;15.80;99.90;;;;;;5011635;28;20046;-63
2023/05/09 06:33:47;;;;;;;1.27;1.20;;;15.80;99.90;;;;;;5004320;28;20037;-63
2023/05/09 06:36:12;;;;;;;1.98;1.52;;;15.90;99.90;;;;;;5009252;28;20079;-63
2023/05/09 06:38:38;;;;;;;3.15;2.75;;;15.90;99.90;;;;;;5005722;28;20038;-63
2023/05/09 06:41:03;;;;;;;1.10;1.10;;;15.90;99.90;;;;;;4989830;28;20098;-63
2023/05/09 06:43:29;;;;;;;1.85;0.88;;;15.90;99.90;;;;;;4984457;28;20185;-63
2023/05/09 06:45:54;;;;;;;1.17;0.98;;;16.00;99.90;;;;;;5005051;28;20044;-63
2023/05/09 06:48:22;;;;;;;3.83;1.85;;;16.00;99.90;;;;;;5012620;28;20030;-63
2023/05/09 06:50:48;;;;;;;1.17;0.90;;;16.00;99.90;;;;;;5005577;28;20069;-63
2023/05/09 06:53:14;;;;;;;1.90;1.80;;;16.00;99.90;;;;;;4992645;28;20492;-63
2023/05/09 06:55:40;;;;;;;1.30;1.23;;;16.00;99.90;;;;;;5000546;28;20050;-63
2023/05/09 06:58:05;;;;;;;2.35;1.40;;;16.10;99.90;;;;;;5005475;28;20453;-63
2023/05/09 07:00:31;;;;;;;0.82;0.80;;;16.10;99.90;;;;;;4998183;28;20126;-63
2023/05/09 07:02:56;;;;;;;3.75;1.30;;;16.20;99.90;;;;;;4994070;28;20046;-63
2023/05/09 07:05:22;;;;;;;3.60;3.28;;;16.10;99.90;;;;;;4999112;28;20410;-63
2023/05/09 07:07:47;;;;;;;0.93;0.93;;;16.10;99.90;;;;;;5007501;28;20034;-63
2023/05/09 07:10:13;;;;;;;1.73;1.63;;;16.20;99.90;;;;;;5001063;28;20054;-62
2023/05/09 07:12:39;;;;;;;0.60;0.60;;;16.10;99.90;;;;;;5005459;28;20552;-63
2023/05/09 07:15:06;;;;;;;1.25;1.17;;;16.20;99.90;;;;;;5002510;28;20084;-63
2023/05/09 07:17:31;;;;;;;0.93;0.93;;;16.20;99.90;;;;;;5007963;28;20093;-63
2023/05/09 07:19:57;;;;;;;1.00;0.95;;;16.30;99.90;;;;;;4988987;28;20073;-63
2023/05/09 07:22:23;;;;;;;14.52;1.23;;;16.30;99.90;;;;;;5006041;28;20050;-63
2023/05/09 07:24:49;;;;;;;5.10;3.03;;;16.30;99.90;;;;;;5003534;28;20066;-63
2023/05/09 07:27:15;;;;;;;7.97;2.28;;;16.20;99.90;;;;;;5002921;28;20104;-63
2023/05/09 07:29:40;;;;;;;3.92;2.17;;;16.20;99.90;;;;;;5005435;28;20054;-63
2023/05/09 07:32:06;;;;;;;1.65;1.55;;;16.20;99.90;;;;;;5003485;28;20409;-63
2023/05/09 07:34:32;;;;;;;2.25;2.08;;;16.20;99.90;;;;;;5006645;28;20478;-63
2023/05/09 07:36:57;;;;;;;11.50;1.52;;;16.20;99.90;;;;;;4988753;28;20054;-63
2023/05/09 07:39:23;;;;;;;1.20;1.13;;;16.20;99.90;;;;;;5005399;28;20034;-63
2023/05/09 07:41:48;;;;;;;4.57;1.65;;;16.20;99.90;;;;;;5005832;28;20133;-62
2023/05/09 07:44:14;;;;;;;4.55;2.15;;;16.20;99.90;;;;;;5002785;28;20040;-63
2023/05/09 07:46:40;;;;;;;1.45;1.33;;;16.20;99.90;;;;;;5007399;28;20096;-63
2023/05/09 07:49:06;;;;;;;4.03;2.53;;;16.20;99.90;;;;;;5003841;28;20104;-63
2023/05/09 07:51:32;;;;;;;7.00;1.45;;;16.20;99.90;;;;;;5000522;28;20060;-63
2023/05/09 07:53:58;;;;;;;1.33;1.27;;;16.20;99.90;;;;;;5007740;28;20045;-63
2023/05/09 07:56:23;;;;;;;9.10;1.85;;;16.20;99.90;;;;;;5003488;28;20046;-63
2023/05/09 07:58:49;;;;;;;1.35;1.25;;;16.20;99.90;;;;;;5005670;28;20049;-63
2023/05/09 08:01:15;;;;;;;0.52;0.50;;;16.30;99.90;;;;;;5012116;28;20069;-63
2023/05/09 08:03:40;;;;;;;0.32;0.32;;;16.30;99.90;;;;;;5004745;28;20038;-63
2023/05/09 08:06:06;;;;;;;1.33;1.10;;;16.30;99.90;;;;;;5013532;28;20473;-63
2023/05/09 08:08:32;;;;;;;1.60;1.50;;;16.20;99.90;;;;;;4992668;28;20045;-63
2023/05/09 08:10:57;;;;;;;0.95;0.95;;;16.20;99.90;;;;;;4993207;28;20046;-63
2023/05/09 08:13:23;;;;;;;1.05;0.60;;;16.30;99.90;;;;;;5005159;28;20121;-63
2023/05/09 08:15:49;;;;;;;2.90;1.25;;;16.30;99.90;;;;;;5007787;28;20531;-64
2023/05/09 08:18:15;;;;;;;3.35;2.35;;;16.30;99.90;;;;;;5006018;28;20156;-65
2023/05/09 08:20:40;;;;;;;8.65;1.27;;;16.20;99.90;;;;;;4988432;28;20046;-65
2023/05/09 08:23:06;;;;;;;1.10;1.02;;;16.20;99.90;;;;;;5008242;28;20058;-65
2023/05/09 08:25:32;;;;;;;0.88;0.88;;;16.30;99.90;;;;;;4982290;28;20454;-65
2023/05/09 08:27:58;;;;;;;0.75;0.75;;;16.20;99.90;;;;;;4989617;28;20107;-65
2023/05/09 08:30:23;;;;;;;2.05;1.23;;;16.20;99.90;;;;;;5008311;28;20140;-65
2023/05/09 08:32:49;;;;;;;7.07;2.88;;;16.30;99.90;;;;;;5003910;28;20068;-65
2023/05/09 08:35:15;;;;;;;1.77;1.30;;;16.30;99.90;;;;;;5008133;28;20045;-65
2023/05/09 08:37:40;;;;;;;1.17;1.10;;;16.40;99.90;;;;;;5008293;28;20132;-66
2023/05/09 08:40:06;;;;;;;3.15;0.70;;;16.40;99.90;;;;;;5008099;28;20049;-65
2023/05/09 08:42:34;;;;;;;3.05;1.20;;;16.40;99.90;;;;;;4999552;28;20081;-65
2023/05/09 08:45:05;;;;;;;0.77;0.77;;;16.40;99.90;;;;;;5001764;28;20046;-65
2023/05/09 08:47:34;;;;;;;0.15;0.15;;;16.40;99.90;;;;;;5010115;28;20120;-66
2023/05/09 08:50:01;;;;;;;3.70;0.68;;;16.50;99.90;;;;;;5006623;28;20056;-66
2023/05/09 08:52:32;;;;;;;0.43;0.43;;;16.60;99.90;;;;;;5001044;28;20089;-65
2023/05/09 08:54:59;;;;;;;1.48;1.00;;;16.60;99.90;;;;;;5008597;28;20125;-65
2023/05/09 08:57:26;;;;;;;0.75;0.75;;;16.50;99.90;;;;;;5007826;28;20054;-65
2023/05/09 08:59:52;;;;;;;1.48;1.38;;;16.50;99.90;;;;;;5009128;28;20046;-66
2023/05/09 09:02:18;;;;;;;1.13;1.00;;;16.60;99.90;;;;;;5002963;28;20439;-66
2023/05/09 09:04:44;;;;;;;8.05;2.38;;;16.60;99.90;;;;;;4999012;28;20049;-65
2023/05/09 09:07:12;;;;;;;3.45;0.95;;;16.60;99.90;;;;;;4999898;28;20056;-66
2023/05/09 09:09:44;;;;;;;0.77;0.77;;;16.60;99.90;;;;;;5008892;28;20045;-65
2023/05/09 09:12:12;;;;;;;1.63;1.52;;;16.60;99.90;;;;;;5005221;28;20041;-66
2023/05/09 09:14:44;;;;;;;0.75;0.75;;;16.60;99.90;;;;;;5006708;28;20184;-65
2023/05/09 09:17:14;;;;;;;0.15;0.15;;;16.70;99.90;;;;;;4997313;28;20056;-66
2023/05/09 09:19:43;;;;;;;5.72;0.38;;;16.80;99.90;;;;;;5006198;28;20045;-65
2023/05/09 09:22:12;;;;;;;0.57;0.57;;;16.80;99.90;;;;;;5008610;28;20152;-66
2023/05/09 09:24:38;;;;;;;1.20;1.10;;;16.90;99.90;;;;;;5001119;28;20129;-65
2023/05/09 09:27:05;;;;;;;2.80;1.98;;;16.90;99.90;;;;;;5003570;28;20052;-66
2023/05/09 09:29:32;;;;;;;1.55;1.45;;;16.90;99.90;;;;;;5008294;28;20050;-66
2023/05/09 09:32:01;;;;;;;1.42;1.00;;;16.90;99.90;;;;;;4996149;28;20141;-66
2023/05/09 09:34:27;;;;;;;0.57;0.57;;;17.00;99.90;;;;;;5000343;28;20053;-68
2023/05/09 09:36:52;;;;;;;0.10;0.10;;;17.00;99.90;;;;;;4984962;28;20034;-68
2023/05/09 09:39:18;;;;;;;0.30;0.30;;;17.00;99.90;;;;;;5002176;28;20053;-68
2023/05/09 09:41:44;;;;;;;0.60;0.60;;;17.00;99.90;;;;;;5001512;28;20047;-66
2023/05/09 09:44:20;;;;;;;0.25;0.25;;;17.00;99.90;;;;;;4996418;28;20401;-67
2023/05/09 09:46:51;;;;;;;0.10;0.10;;;17.00;99.90;;;;;;5007216;28;20049;-65
2023/05/09 09:49:18;;;;;;;1.23;1.00;;;16.90;99.90;;;;;;4997337;28;20053;-67
2023/05/09 09:51:48;;;;;;;0.40;0.40;;;16.90;99.90;;;;;;4991728;28;20079;-64
2023/05/09 09:54:13;;;;;;;3.80;1.55;;;16.90;99.90;;;;;;4997366;28;20057;-64
2023/05/09 09:56:43;;;;;;;0.75;0.75;;;16.80;99.90;;;;;;5001510;28;20050;-64
2023/05/09 09:59:20;;;;;;;1.50;1.27;;;16.80;99.90;;;;;;4996007;28;20426;-64
2023/05/09 10:02:00;;;;;;;0.32;0.32;;;16.90;99.90;;;;;;5004654;28;20096;-65
2023/05/09 10:04:34;;;;;;;0.38;0.38;;;16.90;99.90;;;;;;5007760;28;20046;-65
2023/05/09 10:07:05;;;;;;;2.08;1.83;;;16.90;99.90;;;;;;5005854;28;20282;-65
2023/05/09 10:09:31;;;;;;;0.60;0.60;;;16.90;99.90;;;;;;5004457;28;20064;-65
2023/05/09 10:12:02;;;;;;;0.70;0.50;;;16.90;99.90;;;;;;5003552;28;20050;-65
2023/05/09 10:14:29;;;;;;;0.70;0.68;;;16.90;99.90;;;;;;5008247;28;20038;-65
2023/05/09 10:16:56;;;;;;;0.60;0.60;;;16.80;99.90;;;;;;5001402;28;20482;-65
2023/05/09 10:19:24;;;;;;;4.10;0.70;;;16.80;99.90;;;;;;5010731;28;20046;-65
2023/05/09 10:21:55;;;;;;;1.17;0.47;;;16.80;99.90;;;;;;4993532;28;20540;-65
2023/05/09 10:24:28;;;;;;;1.15;1.13;;;16.80;99.90;;;;;;5009481;28;20042;-64
2023/05/09 10:27:08;;;;;;;0.40;0.40;;;16.80;99.90;;;;;;5008104;28;20057;-65
2023/05/09 10:29:37;;;;;;;0.28;0.28;;;16.80;99.90;;;;;;5005379;28;20049;-65
2023/05/09 10:32:22;;;;;;;0.70;0.70;;;16.90;99.90;;;;;;4999385;28;20042;-65
2023/05/09 10:34:52;;;;;;;2.15;0.98;;;16.80;99.90;;;;;;5013711;28;20050;-65
2023/05/09 10:37:20;;;;;;;0.43;0.43;;;16.70;99.90;;;;;;5008456;28;20515;-65
2023/05/09 10:39:46;;;;;;;6.13;1.15;;;16.70;99.90;;;;;;5008665;28;20046;-64
2023/05/09 10:42:13;;;;;;;1.90;1.33;;;16.60;99.90;;;;;;5007632;28;20041;-66
2023/05/09 10:44:38;;;;;;;0.47;0.47;;;16.50;99.90;;;;;;5006903;28;20057;-65
2023/05/09 10:47:05;;;;;;;0.50;0.50;;;16.40;99.90;;;;;;5009954;28;20045;-65
2023/05/09 10:49:31;;;;;;;0.68;0.68;;;16.30;99.90;;;;;;5000736;28;20096;-66
2023/05/09 10:51:56;;;;;;;1.77;0.80;;;16.20;99.90;;;;;;5010922;28;20081;-66
2023/05/09 10:54:32;;;;;;;0.40;0.40;;;16.30;99.90;;;;;;5005124;28;20125;-66
2023/05/09 10:56:58;;;;;;;0.35;0.35;;;16.20;99.90;;;;;;5007636;28;20045;-65
2023/05/09 10:59:32;;;;;;;0.50;0.50;;;16.20;99.90;;;;;;5004838;28;20042;-65
2023/05/09 11:02:01;;;;;;;1.75;1.65;;;16.20;99.90;;;;;;5005448;28;20064;-66
2023/05/09 11:04:27;;;;;;;0.22;0.22;;;16.20;99.90;;;;;;5007674;28;20048;-65
2023/05/09 11:06:53;;;;;;;0.40;0.40;;;16.20;99.90;;;;;;5009687;28;20065;-66
2023/05/09 11:09:28;;;;;;;1.17;0.57;;;16.30;99.90;;;;;;5006004;28;20046;-66
2023/05/09 11:12:04;;;;;;;0.30;0.30;;;16.30;99.90;;;;;;5005599;28;20038;-65
2023/05/09 11:14:34;;;;;;;0.20;0.20;;;16.40;99.90;;;;;;5005659;28;20133;-65
2023/05/09 11:17:03;;;;;;;2.42;1.20;;;16.30;99.90;;;;;;5002474;28;20076;-65
2023/05/09 11:19:51;;;;;;;0.30;0.30;;;16.20;99.90;;;;;;5007182;28;20041;-65
2023/05/09 11:22:26;;;;;;;0.38;0.38;;;16.20;99.90;;;;;;4994726;28;20503;-65
2023/05/09 11:24:59;;;;;;;0.35;0.35;;;16.20;99.90;;;;;;4990844;28;20046;-65
2023/05/09 11:27:27;;;;;;;0.52;0.38;;;16.20;99.90;;;;;;5004974;28;20100;-65
2023/05/09 11:29:55;;;;;;;0.10;0.10;;;16.20;99.90;;;;;;5004858;28;20417;-66
2023/05/09 11:32:26;;;;;;;0.65;0.65;;;16.20;99.90;;;;;;5009139;28;20046;-65
2023/05/09 11:35:03;;;;;;;0.00;0.00;;;16.10;99.90;;;;;;4998797;28;20100;-65
2023/05/09 11:37:30;;;;;;;0.65;0.65;;;16.10;99.90;;;;;;5002150;28;20042;-65
2023/05/09 11:39:57;;;;;;;0.55;0.55;;;16.10;99.90;;;;;;5002684;28;20108;-65
2023/05/09 11:42:24;;;;;;;0.52;0.52;;;16.10;99.90;;;;;;5009368;28;20076;-65
2023/05/09 11:44:50;;;;;;;0.10;0.10;;;16.10;99.90;;;;;;4983892;28;20045;-65
2023/05/09 11:47:16;;;;;;;0.00;0.00;;;16.20;99.90;;;;;;5005896;28;20445;-65
2023/05/09 11:49:43;;;;;;;0.00;0.00;;;16.20;99.90;;;;;;5007626;28;20038;-65
2023/05/09 11:52:08;;;;;;;0.43;0.43;;;16.10;99.90;;;;;;5000149;28;20088;-65
2023/05/09 11:54:37;;;;;;;0.40;0.40;;;16.20;99.90;;;;;;5009799;28;20046;-65
2023/05/09 11:57:04;;;;;;;0.05;0.05;;;16.20;99.90;;;;;;4984007;28;20046;-65
2023/05/09 11:59:30;;;;;;;1.45;1.20;;;16.30;99.90;;;;;;5000284;28;20442;-65
2023/05/09 12:01:55;;;;;;;0.40;0.40;;;16.30;99.90;;;;;;4998380;28;20042;-65
2023/05/09 12:04:21;;;;;;;0.30;0.30;;;16.30;99.90;;;;;;5003332;28;20038;-65
2023/05/09 12:06:48;;;;;;;0.57;0.57;;;16.40;99.90;;;;;;5013986;28;20121;-65
2023/05/09 12:09:15;;;;;;;3.15;0.52;;;16.40;99.90;;;;;;5009701;28;20049;-65
2023/05/09 12:11:49;;;;;;;0.00;0.00;;;16.30;99.90;;;;;;5010902;28;20057;-65
2023/05/09 12:14:29;;;;;;;0.03;0.03;;;16.30;99.90;;;;;;5004119;28;20076;-65
2023/05/09 12:16:54;;;;;;;0.68;0.68;;;16.40;99.90;;;;;;5006904;28;20096;-65
2023/05/09 12:19:22;;;;;;;0.17;0.17;;;16.40;99.90;;;;;;5011800;28;20493;-65
2023/05/09 12:21:47;;;;;;;0.10;0.10;;;16.40;99.90;;;;;;4989332;28;20124;-64
2023/05/09 12:24:13;;;;;;;0.20;0.20;;;16.40;99.90;;;;;;5008882;28;20044;-65
2023/05/09 12:26:39;;;;;;;0.40;0.40;;;16.40;99.90;;;;;;5004209;28;20053;-66
2023/05/09 12:29:05;;;;;;;0.15;0.15;;;16.40;99.90;;;;;;4977636;28;20042;-65
2023/05/09 12:31:30;;;;;;;0.43;0.43;;;16.40;99.90;;;;;;5007908;28;20041;-65
2023/05/09 12:33:56;;;;;;;0.08;0.08;;;16.40;99.90;;;;;;4989265;28;20038;-65
2023/05/09 12:36:23;;;;;;;0.32;0.32;;;16.40;99.90;;;;;;5000378;28;20410;-66
2023/05/09 12:38:54;;;;;;;0.65;0.35;;;16.30;99.90;;;;;;5007371;28;20073;-65
2023/05/09 12:41:21;;;;;;;0.00;0.00;;;16.20;99.90;;;;;;5004146;28;20108;-65
2023/05/09 12:43:48;;;;;;;0.20;0.20;;;16.20;99.90;;;;;;5009178;28;20121;-64
2023/05/09 12:46:18;;;;;;;0.20;0.20;;;16.10;99.90;;;;;;4991652;28;20050;-65